createdAt,value
2023-01-17T00:00:15.027Z,3.87
2023-01-17T00:03:17.224Z,3.96
2023-01-17T00:06:38.001Z,3.91
2023-01-17T00:09:56.965Z,4.02
2023-01-17T00:13:02.329Z,3.96
2023-01-17T00:16:04.765Z,4.00
2023-01-17T00:19:25.574Z,4.15
2023-01-17T00:22:48.532Z,4.15
2023-01-17T00:26:06.007Z,4.54
2023-01-17T00:29:08.146Z,4.55
2023-01-17T00:32:10.265Z,4.49
2023-01-17T00:35:12.425Z,4.38
2023-01-17T00:38:17.147Z,4.34
2023-01-17T00:41:19.328Z,4.41
2023-01-17T00:44:39.930Z,4.27
2023-01-17T00:48:03.699Z,4.17
2023-01-17T00:51:24.648Z,4.26
2023-01-17T00:54:45.518Z,4.28
2023-01-17T00:58:06.311Z,4.30
2023-01-17T01:01:27.256Z,4.25
2023-01-17T01:04:48.024Z,4.19
2023-01-17T01:08:09.291Z,4.20
2023-01-17T01:11:33.586Z,4.25
2023-01-17T01:14:54.419Z,4.28
2023-01-17T01:18:15.239Z,4.38
2023-01-17T01:21:35.877Z,4.19
2023-01-17T01:24:56.957Z,4.17
2023-01-17T01:28:31.947Z,4.17
2023-01-17T01:31:52.661Z,4.25
2023-01-17T01:34:54.953Z,4.26
2023-01-17T01:37:57.297Z,4.19
2023-01-17T01:40:59.496Z,4.30
2023-01-17T01:44:01.638Z,4.26
2023-01-17T01:47:03.838Z,4.34
2023-01-17T01:50:08.496Z,4.24
2023-01-17T01:53:10.800Z,4.23
2023-01-17T01:56:13.915Z,4.25
2023-01-17T01:59:20.015Z,4.29
2023-01-17T02:02:22.193Z,4.17
2023-01-17T02:05:25.716Z,4.13
2023-01-17T02:08:28.250Z,4.05
2023-01-17T02:11:31.436Z,4.05
2023-01-17T02:14:33.607Z,4.13
2023-01-17T02:17:35.740Z,4.06
2023-01-17T02:21:10.458Z,4.03
2023-01-17T02:24:44.865Z,4.03
2023-01-17T02:28:11.704Z,4.13
2023-01-17T02:31:33.977Z,4.23
2023-01-17T02:34:56.366Z,4.25
2023-01-17T02:38:15.641Z,4.22
2023-01-17T02:41:44.940Z,4.23
2023-01-17T02:44:47.168Z,4.13
2023-01-17T02:47:49.335Z,4.08
2023-01-17T02:51:11.035Z,4.23
2023-01-17T02:54:36.458Z,4.20
2023-01-17T02:57:57.382Z,4.39
2023-01-17T03:01:05.588Z,4.33
2023-01-17T03:04:39.214Z,4.55
2023-01-17T03:07:44.330Z,4.34
2023-01-17T03:10:46.728Z,4.29
2023-01-17T03:13:49.191Z,4.26
2023-01-17T03:16:51.577Z,4.32
2023-01-17T03:19:53.777Z,4.32
2023-01-17T03:22:56.279Z,4.38
2023-01-17T03:25:58.465Z,4.35
2023-01-17T03:29:00.655Z,4.20
2023-01-17T03:32:02.977Z,4.25
2023-01-17T03:35:05.694Z,4.25
2023-01-17T03:38:07.912Z,4.23
2023-01-17T03:41:10.175Z,4.23
2023-01-17T03:44:12.313Z,4.21
2023-01-17T03:47:14.569Z,4.18
2023-01-17T03:50:16.855Z,4.22
2023-01-17T03:53:19.088Z,4.20
2023-01-17T03:56:21.736Z,4.22
2023-01-17T03:59:23.902Z,4.20
2023-01-17T04:02:26.108Z,4.27
2023-01-17T04:05:28.296Z,4.35
2023-01-17T04:08:30.579Z,4.37
2023-01-17T04:11:32.725Z,4.35
2023-01-17T04:14:35.204Z,4.36
2023-01-17T04:17:37.540Z,4.32
2023-01-17T04:20:40.320Z,4.25
2023-01-17T04:23:42.518Z,4.40
2023-01-17T04:26:44.910Z,4.47
2023-01-17T04:29:47.125Z,4.41
2023-01-17T04:32:49.350Z,4.43
2023-01-17T04:35:53.308Z,4.45
2023-01-17T04:38:55.479Z,4.40
2023-01-17T04:41:57.696Z,4.44
2023-01-17T04:44:59.852Z,4.42
2023-01-17T04:48:06.333Z,4.46
2023-01-17T04:51:08.533Z,4.42
2023-01-17T04:54:10.749Z,4.40
2023-01-17T04:57:12.946Z,4.42
2023-01-17T05:00:15.756Z,4.46
2023-01-17T05:03:22.845Z,4.53
2023-01-17T05:06:25.036Z,4.49
2023-01-17T05:09:27.181Z,4.43
2023-01-17T05:12:29.385Z,4.37
2023-01-17T05:15:31.670Z,4.35
2023-01-17T05:18:33.937Z,4.30
2023-01-17T05:21:36.099Z,4.40
2023-01-17T05:24:38.294Z,4.35
2023-01-17T05:27:40.493Z,4.30
2023-01-17T05:30:42.766Z,4.32
2023-01-17T05:33:44.992Z,4.30
2023-01-17T05:36:47.159Z,4.33
2023-01-17T05:39:49.313Z,4.24
2023-01-17T05:42:53.637Z,4.23
2023-01-17T05:45:55.852Z,4.33
2023-01-17T05:48:58.014Z,4.46
2023-01-17T05:52:00.178Z,4.42
2023-01-17T05:55:02.400Z,4.19
2023-01-17T05:58:05.858Z,4.33
2023-01-17T06:01:08.105Z,4.35
2023-01-17T06:04:10.297Z,4.36
2023-01-17T06:07:12.471Z,4.22
2023-01-17T06:10:15.997Z,4.24
2023-01-17T06:13:21.911Z,4.15
2023-01-17T06:16:24.159Z,4.21
2023-01-17T06:19:26.390Z,4.27
2023-01-17T06:22:28.539Z,4.09
2023-01-17T06:25:36.794Z,4.15
2023-01-17T06:28:39.159Z,4.08
2023-01-17T06:31:41.368Z,4.08
2023-01-17T06:34:43.609Z,4.06
2023-01-17T06:37:45.763Z,4.06
2023-01-17T06:40:48.175Z,3.99
2023-01-17T06:43:50.322Z,4.07
2023-01-17T06:46:53.429Z,4.09
2023-01-17T06:49:55.681Z,4.09
2023-01-17T06:52:59.779Z,4.15
2023-01-17T06:56:02.265Z,4.07
2023-01-17T06:59:04.772Z,4.00
2023-01-17T07:02:10.090Z,4.00
2023-01-17T07:05:12.266Z,3.93
2023-01-17T07:08:16.479Z,3.80
2023-01-17T07:11:18.742Z,3.81
2023-01-17T07:14:20.937Z,3.83
2023-01-17T07:17:23.245Z,3.81
2023-01-17T07:20:25.437Z,3.77
2023-01-17T07:23:27.612Z,3.71
2023-01-17T07:26:29.863Z,3.82
2023-01-17T07:29:32.067Z,3.86
2023-01-17T07:32:34.266Z,3.77
2023-01-17T07:35:36.878Z,3.81
2023-01-17T07:38:39.178Z,3.84
2023-01-17T07:41:42.856Z,3.89
2023-01-17T07:44:45.484Z,3.80
2023-01-17T07:47:50.041Z,3.76
2023-01-17T07:50:56.484Z,3.78
2023-01-17T07:53:58.706Z,3.79
2023-01-17T07:57:01.769Z,3.84
2023-01-17T08:00:04.899Z,3.85
2023-01-17T08:03:07.114Z,3.85
2023-01-17T08:06:24.339Z,3.84
2023-01-17T08:09:26.535Z,3.92
2023-01-17T08:12:29.595Z,3.83
2023-01-17T08:15:32.300Z,3.93
2023-01-17T08:18:35.314Z,3.99
2023-01-17T08:21:37.765Z,3.92
2023-01-17T08:24:39.932Z,3.94
2023-01-17T08:27:42.104Z,3.99
2023-01-17T08:30:44.451Z,3.91
2023-01-17T08:33:46.678Z,3.83
2023-01-17T08:36:48.902Z,3.92
2023-01-17T08:39:51.246Z,4.04
2023-01-17T08:42:54.892Z,4.03
2023-01-17T08:45:57.182Z,4.17
2023-01-17T08:49:00.117Z,4.46
2023-01-17T08:52:02.361Z,4.47
2023-01-17T08:55:05.965Z,4.49
2023-01-17T08:58:08.435Z,4.31
2023-01-17T09:01:10.881Z,4.33
2023-01-17T09:04:13.659Z,4.38
2023-01-17T09:07:17.292Z,4.46
2023-01-17T09:10:19.545Z,4.32
2023-01-17T09:13:21.710Z,4.27
2023-01-17T09:16:23.955Z,4.23
2023-01-17T09:19:26.258Z,4.19
2023-01-17T09:22:28.444Z,4.15
2023-01-17T09:25:30.681Z,4.19
2023-01-17T09:28:39.631Z,4.23
2023-01-17T09:31:42.258Z,4.23
2023-01-17T09:34:44.476Z,4.43
2023-01-17T09:37:50.816Z,4.56
2023-01-17T09:40:52.941Z,4.65
2023-01-17T09:43:59.785Z,4.75
2023-01-17T09:47:13.803Z,4.82
2023-01-17T09:50:32.038Z,5.06
2023-01-17T09:53:37.597Z,5.06
2023-01-17T09:56:47.039Z,4.93
2023-01-17T10:00:02.947Z,4.94
2023-01-17T10:03:26.597Z,4.89
2023-01-17T10:06:53.520Z,4.93
2023-01-17T10:10:26.058Z,4.86
2023-01-17T10:13:34.288Z,4.86
2023-01-17T10:17:16.216Z,5.00
2023-01-17T10:20:30.754Z,4.80
2023-01-17T10:23:50.790Z,4.90
2023-01-17T10:26:56.267Z,5.04
2023-01-17T10:30:00.133Z,5.09
2023-01-17T10:33:04.321Z,5.08
2023-01-17T10:36:12.977Z,5.07
2023-01-17T10:39:25.627Z,5.26
2023-01-17T10:42:41.053Z,5.31
2023-01-17T10:45:51.957Z,5.32
2023-01-17T10:48:55.204Z,5.33
2023-01-17T10:52:00.338Z,5.44
2023-01-17T10:55:27.511Z,5.26
2023-01-17T10:58:29.777Z,5.36
2023-01-17T11:01:32.068Z,5.39
2023-01-17T11:04:36.741Z,5.49
2023-01-17T11:07:40.181Z,5.39
2023-01-17T11:10:50.396Z,5.56
2023-01-17T11:13:53.765Z,5.72
2023-01-17T11:17:03.726Z,5.69
2023-01-17T11:20:20.112Z,5.85
2023-01-17T11:23:33.290Z,5.89
2023-01-17T11:26:36.678Z,6.00
2023-01-17T11:29:40.700Z,6.07
2023-01-17T11:32:54.874Z,6.02
2023-01-17T11:35:57.155Z,6.11
2023-01-17T11:39:04.433Z,6.20
2023-01-17T11:42:09.449Z,6.26
2023-01-17T11:45:27.335Z,6.25
2023-01-17T11:48:38.027Z,6.30
2023-01-17T11:51:41.996Z,6.13
2023-01-17T11:54:46.795Z,6.24
2023-01-17T11:57:50.637Z,6.40
2023-01-17T12:01:22.153Z,6.32
2023-01-17T12:04:37.707Z,6.24
2023-01-17T12:07:58.304Z,6.66
2023-01-17T12:11:05.959Z,6.70
2023-01-17T12:14:28.161Z,6.79
2023-01-17T12:17:37.334Z,6.65
2023-01-17T12:20:59.646Z,6.61
2023-01-17T12:24:50.801Z,6.65
2023-01-17T12:28:00.664Z,6.67
2023-01-17T12:31:15.419Z,6.71
2023-01-17T12:34:19.654Z,6.69
2023-01-17T12:37:37.197Z,6.69
2023-01-17T12:40:58.062Z,6.73
2023-01-17T12:44:01.130Z,6.68
2023-01-17T12:47:04.948Z,6.72
2023-01-17T12:50:19.103Z,6.69
2023-01-17T12:53:38.104Z,6.62
2023-01-17T12:56:48.479Z,6.70
2023-01-17T12:59:56.629Z,6.72
2023-01-17T13:03:16.108Z,6.72
2023-01-17T13:06:27.345Z,6.80
2023-01-17T13:09:59.183Z,6.74
2023-01-17T13:13:13.491Z,6.73
2023-01-17T13:16:23.399Z,6.75
2023-01-17T13:19:40.797Z,6.67
2023-01-17T13:22:43.215Z,6.71
2023-01-17T13:25:50.538Z,6.69
2023-01-17T13:29:30.112Z,6.83
2023-01-17T13:32:38.125Z,6.70
2023-01-17T13:35:58.209Z,6.73
2023-01-17T13:39:12.675Z,6.63
2023-01-17T13:42:46.984Z,6.60
2023-01-17T13:45:57.466Z,6.53
2023-01-17T13:49:29.120Z,6.46
2023-01-17T13:52:34.096Z,6.45
2023-01-17T13:55:47.203Z,6.51
2023-01-17T13:58:50.360Z,6.37
2023-01-17T14:01:53.278Z,6.32
2023-01-17T14:05:15.923Z,6.30
2023-01-17T14:08:19.157Z,6.23
2023-01-17T14:11:21.730Z,6.30
2023-01-17T14:14:42.708Z,6.08
2023-01-17T14:17:58.037Z,6.03
2023-01-17T14:21:25.362Z,5.99
2023-01-17T14:24:30.592Z,6.05
2023-01-17T14:27:38.116Z,5.88
2023-01-17T14:30:41.412Z,5.89
2023-01-17T14:33:43.852Z,5.88
2023-01-17T14:36:46.061Z,5.95
2023-01-17T14:39:49.991Z,5.94
2023-01-17T14:43:04.312Z,5.77
2023-01-17T14:46:08.560Z,5.84
2023-01-17T14:49:24.106Z,5.84
2023-01-17T14:52:26.323Z,5.61
2023-01-17T14:55:28.489Z,5.63
2023-01-17T14:58:33.165Z,5.71
2023-01-17T15:01:36.303Z,5.67
2023-01-17T15:04:40.342Z,5.68
2023-01-17T15:07:48.409Z,5.66
2023-01-17T15:10:55.153Z,5.45
2023-01-17T15:13:59.358Z,5.41
2023-01-17T15:17:12.770Z,5.52
2023-01-17T15:20:16.969Z,5.41
2023-01-17T15:23:21.312Z,5.42
2023-01-17T15:26:25.536Z,5.34
2023-01-17T15:29:31.254Z,5.35
2023-01-17T15:32:33.641Z,5.42
2023-01-17T15:35:35.803Z,5.34
2023-01-17T15:38:40.723Z,5.30
2023-01-17T15:41:42.912Z,5.24
2023-01-17T15:44:48.871Z,5.36
2023-01-17T15:47:51.636Z,5.23
2023-01-17T15:50:59.682Z,5.30
2023-01-17T15:54:25.533Z,5.30
2023-01-17T15:57:37.294Z,5.35
2023-01-17T16:00:41.878Z,5.26
2023-01-17T16:03:55.206Z,5.26
2023-01-17T16:07:19.807Z,5.26
2023-01-17T16:10:24.488Z,5.28
2023-01-17T16:13:26.693Z,5.22
2023-01-17T16:16:28.975Z,5.27
2023-01-17T16:19:31.976Z,5.25
2023-01-17T16:22:34.149Z,5.30
2023-01-17T16:25:36.384Z,5.22
2023-01-17T16:28:38.831Z,5.28
2023-01-17T16:31:41.007Z,5.24
2023-01-17T16:34:43.254Z,5.29
2023-01-17T16:37:49.368Z,5.28
2023-01-17T16:40:51.923Z,5.05
2023-01-17T16:44:00.249Z,5.10
2023-01-17T16:47:02.499Z,5.11
2023-01-17T16:50:05.013Z,5.18
2023-01-17T16:53:07.218Z,5.16
2023-01-17T16:56:14.505Z,5.21
2023-01-17T16:59:16.767Z,5.15
2023-01-17T17:02:19.124Z,5.04
2023-01-17T17:05:21.323Z,5.08
2023-01-17T17:08:24.292Z,4.95
2023-01-17T17:11:26.441Z,4.83
2023-01-17T17:14:29.327Z,4.94
2023-01-17T17:17:35.916Z,4.85
2023-01-17T17:20:38.064Z,4.73
2023-01-17T17:23:40.294Z,4.66
2023-01-17T17:26:43.368Z,4.67
2023-01-17T17:29:45.744Z,4.53
2023-01-17T17:32:48.095Z,4.52
2023-01-17T17:35:50.273Z,4.50
2023-01-17T17:38:55.451Z,4.38
2023-01-17T17:41:57.607Z,4.34
2023-01-17T17:44:59.742Z,4.34
2023-01-17T17:48:01.907Z,4.17
2023-01-17T17:51:06.294Z,4.24
2023-01-17T17:54:11.411Z,4.14
2023-01-17T17:57:13.578Z,4.19
2023-01-17T18:00:16.392Z,4.15
2023-01-17T18:03:19.020Z,4.15
2023-01-17T18:06:21.771Z,4.06
2023-01-17T18:09:24.141Z,3.96
2023-01-17T18:12:26.885Z,4.04
2023-01-17T18:15:29.221Z,3.98
2023-01-17T18:18:33.074Z,3.98
2023-01-17T18:21:37.513Z,4.03
2023-01-17T18:24:39.976Z,3.83
2023-01-17T18:27:45.272Z,3.89
2023-01-17T18:30:47.547Z,3.94
2023-01-17T18:33:50.137Z,3.72
2023-01-17T18:36:52.724Z,3.80
2023-01-17T18:39:55.159Z,3.74
2023-01-17T18:42:57.556Z,3.84
2023-01-17T18:46:01.963Z,3.72
2023-01-17T18:49:05.159Z,3.70
2023-01-17T18:52:09.337Z,3.63
2023-01-17T18:55:11.665Z,3.68
2023-01-17T18:58:15.162Z,3.66
2023-01-17T19:01:44.625Z,3.61
2023-01-17T19:04:47.048Z,3.51
2023-01-17T19:07:49.805Z,3.53
2023-01-17T19:10:52.198Z,3.48
2023-01-17T19:13:55.326Z,3.57
2023-01-17T19:16:57.652Z,3.61
2023-01-17T19:20:00.355Z,3.52
2023-01-17T19:23:03.443Z,3.59
2023-01-17T19:26:08.264Z,3.50
2023-01-17T19:29:11.203Z,3.46
2023-01-17T19:32:13.621Z,3.51
2023-01-17T19:35:17.567Z,3.51
2023-01-17T19:38:19.728Z,3.59
2023-01-17T19:41:26.159Z,3.46
2023-01-17T19:44:29.391Z,3.34
2023-01-17T19:47:31.718Z,3.44
2023-01-17T19:50:34.585Z,3.35
2023-01-17T19:53:37.876Z,3.32
2023-01-17T19:56:40.437Z,3.27
2023-01-17T19:59:42.835Z,3.33
2023-01-17T20:02:46.441Z,3.27
2023-01-17T20:05:56.109Z,3.24
2023-01-17T20:08:58.884Z,3.19
2023-01-17T20:12:01.272Z,3.25
2023-01-17T20:15:06.208Z,3.13
2023-01-17T20:18:08.951Z,3.15
2023-01-17T20:21:14.655Z,2.97
2023-01-17T20:24:17.217Z,3.07
2023-01-17T20:27:21.453Z,2.91
2023-01-17T20:30:29.986Z,2.90
2023-01-17T20:33:32.246Z,2.71
2023-01-17T20:36:35.382Z,2.78
2023-01-17T20:39:39.340Z,2.50
2023-01-17T20:42:41.525Z,2.42
2023-01-17T20:45:43.856Z,2.36
2023-01-17T20:48:47.805Z,2.34
2023-01-17T20:51:50.095Z,2.34
2023-01-17T20:54:52.844Z,2.38
2023-01-17T20:57:55.351Z,2.46
2023-01-17T21:00:58.251Z,2.61
2023-01-17T21:04:00.643Z,2.48
2023-01-17T21:07:02.805Z,2.43
2023-01-17T21:10:05.313Z,2.39
2023-01-17T21:13:07.515Z,2.40
2023-01-17T21:16:12.747Z,2.50
2023-01-17T21:19:17.932Z,2.71
2023-01-17T21:22:20.266Z,2.68
2023-01-17T21:25:22.456Z,2.55
2023-01-17T21:28:26.930Z,2.41
2023-01-17T21:31:30.567Z,2.30
2023-01-17T21:34:34.609Z,2.24
2023-01-17T21:37:37.334Z,2.12
2023-01-17T21:40:40.108Z,2.09
2023-01-17T21:43:42.251Z,2.27
2023-01-17T21:46:44.628Z,2.17
2023-01-17T21:49:46.887Z,2.21
2023-01-17T21:52:49.056Z,2.17
2023-01-17T21:56:09.777Z,2.10
2023-01-17T21:59:11.960Z,2.16
2023-01-17T22:02:14.228Z,1.98
2023-01-17T22:05:18.018Z,2.01
2023-01-17T22:08:20.635Z,2.09
2023-01-17T22:11:25.374Z,2.11
2023-01-17T22:14:27.519Z,2.14
2023-01-17T22:17:30.645Z,2.33
2023-01-17T22:20:33.311Z,2.06
2023-01-17T22:23:35.684Z,1.98
2023-01-17T22:26:39.917Z,1.93
2023-01-17T22:29:43.233Z,1.91
2023-01-17T22:32:45.429Z,2.13
2023-01-17T22:35:47.620Z,2.18
2023-01-17T22:38:50.024Z,2.13
2023-01-17T22:41:52.199Z,2.16
2023-01-17T22:44:54.341Z,2.11
2023-01-17T22:47:56.513Z,2.12
2023-01-17T22:51:02.097Z,2.17
2023-01-17T22:54:04.525Z,2.11
2023-01-17T22:57:06.695Z,2.22
2023-01-17T23:00:14.512Z,2.15
2023-01-17T23:03:16.947Z,2.17
2023-01-17T23:06:22.860Z,2.34
2023-01-17T23:09:25.031Z,2.31
2023-01-17T23:12:27.241Z,2.36
2023-01-17T23:15:48.319Z,2.22
2023-01-17T23:19:09.249Z,2.06
2023-01-17T23:22:16.891Z,2.26
2023-01-17T23:25:19.179Z,2.42
2023-01-17T23:28:21.436Z,2.30
2023-01-17T23:31:24.452Z,2.24
2023-01-17T23:34:26.680Z,2.22
2023-01-17T23:37:50.152Z,2.15
2023-01-17T23:41:12.179Z,2.17
2023-01-17T23:44:15.216Z,2.41
2023-01-17T23:47:17.380Z,2.26
2023-01-17T23:50:19.717Z,2.26
2023-01-17T23:53:22.515Z,2.48
2023-01-17T23:56:24.889Z,2.29
2023-01-17T23:59:27.201Z,2.27
